Mc Comb/Pike County/John E Lewis Field
KMCB : now visible

Airfield :











YOU CAN JOIN US ON...

 
LOGIN :

Register | Disclaimer

   EN    FR    IT 

 









Legend :    VFR   Marginal VFR   IFR   Intensive IFR   Very Intensive IFR
Visi :
Ceiling :
>= 8 km
>= 3000ft
5 to 8 km
1000 to 3000 ft
1500m to 5 km
500 to 1000 ft
800 to 1500m
200 to 500 ft
< 800m
< 200 ft
Symbols :   Thunderstorms  Fog  Heavy snow  Heavy precipitations  Wind > 20 kt






- Airport Elevation : 413 ft


KMCB - Mc Comb/Pike County/John E Lewis Field

CURRENT METAR :
  • 041453Z AUTO 01003KT 3SM BR OVC002 13/12 A3029 RMK AO2 SLP255 T01280117 50010

EXPIRED METARs :
  • 041437Z AUTO 01004KT 1SM BR OVC002 12/12 A3029 RMK AO2 T01220117
  • 041422Z AUTO 34004KT 1/2SM FG VV002 12/12 A3028 RMK AO2 T01220117
  • 041401Z AUTO 04003KT 1/4SM FG VV002 12/12 A3028 RMK AO2 T01170117
  • 041353Z AUTO 01003KT 1/2SM FG OVC002 12/12 A3027 RMK AO2 SLP249 T01170117
  • 041300Z AUTO 02003KT 3/4SM BR OVC002 12/11 A3026 RMK AO2 T01170111
  • 041253Z AUTO VRB03KT 2 1/2SM BR OVC002 12/11 A3026 RMK AO2 SLP244 T01220111

TAF KMCB
Valid from the 04 at 13:00 until the 05 at 12:00 UTC


041329Z 0413/0512 02003KT 3SM BR OVC002
TEMPO 0413/0415 1/2SM FG
FM041500 04003KT P6SM SCT005 BKN015
FM042300 00000KT P6SM BKN040
FM051000 VRB03KT 1SM BR BKN008
KZHU FIR / North America



MET'MAP, your aeronautical weather chart ! - Copyright ORBIFLY December 2007 - Disclaimer

ORBIFLY MET'MAP TEAM :

Programming & Development : Alexandra Zaïnal
Original concept : Baudouin d'Aumeries
Technical & hardware support : Manuel Goepfert
Assistance : Marc-Olivier Méhu




SOURCES & CREDITS :

   NOAA       Earth
Advisory